createdAt,value
2022-10-23T00:00:00.352Z,71.5
2022-10-23T00:01:00.341Z,71.7
2022-10-23T00:02:00.417Z,71.9
2022-10-23T00:03:00.689Z,72.1
2022-10-23T00:04:00.317Z,72.5
2022-10-23T00:05:00.319Z,72.4
2022-10-23T00:06:00.595Z,72.8
2022-10-23T00:07:00.279Z,72.7
2022-10-23T00:08:00.308Z,72.9
2022-10-23T00:09:00.470Z,73.0
2022-10-23T00:10:00.306Z,73.4
2022-10-23T00:11:00.290Z,73.3
2022-10-23T00:12:00.331Z,73.2
2022-10-23T00:13:00.309Z,73.1
2022-10-23T00:14:00.322Z,73.6
2022-10-23T00:15:00.439Z,73.1
2022-10-23T00:16:00.296Z,72.8
2022-10-23T00:17:00.292Z,73.0
2022-10-23T00:18:00.321Z,72.8
2022-10-23T00:19:00.307Z,72.6
2022-10-23T00:20:00.293Z,72.9
2022-10-23T00:21:00.551Z,73.2
2022-10-23T00:22:00.339Z,73.1
2022-10-23T00:23:00.296Z,73.3
2022-10-23T00:24:00.375Z,73.4
2022-10-23T00:25:00.290Z,73.6
2022-10-23T00:26:00.312Z,73.8
2022-10-23T00:27:00.426Z,74.0
2022-10-23T00:28:00.300Z,74.2
2022-10-23T00:29:00.342Z,74.4
2022-10-23T00:30:00.323Z,74.4
2022-10-23T00:31:00.334Z,74.5
2022-10-23T00:32:00.346Z,74.8
2022-10-23T00:33:00.459Z,74.8
2022-10-23T00:34:00.304Z,74.9
2022-10-23T00:35:00.316Z,75.1
2022-10-23T00:36:00.515Z,75.0
2022-10-23T00:37:00.390Z,75.0
2022-10-23T00:38:00.300Z,75.0
2022-10-23T00:39:00.515Z,75.0
2022-10-23T00:40:00.372Z,75.3
2022-10-23T00:41:00.299Z,75.4
2022-10-23T00:42:00.407Z,75.3
2022-10-23T00:43:00.277Z,75.2
2022-10-23T00:44:00.317Z,75.2
2022-10-23T00:45:00.536Z,75.2
2022-10-23T00:46:00.286Z,75.4
2022-10-23T00:47:00.312Z,75.6
2022-10-23T00:48:00.292Z,75.5
2022-10-23T00:49:00.387Z,75.7
2022-10-23T00:50:00.345Z,75.8
2022-10-23T00:51:00.423Z,75.7
2022-10-23T00:52:00.337Z,76.3
2022-10-23T00:53:00.287Z,76.4
2022-10-23T00:54:06.761Z,75.9
2022-10-23T00:55:00.303Z,75.9
2022-10-23T00:56:00.303Z,75.6
2022-10-23T00:57:00.455Z,75.3
2022-10-23T00:58:00.300Z,75.7
2022-10-23T00:59:00.294Z,75.4
2022-10-23T01:00:00.288Z,75.3
2022-10-23T01:01:00.361Z,75.0
2022-10-23T01:02:00.454Z,74.9
2022-10-23T01:03:00.405Z,75.0
2022-10-23T01:04:00.380Z,75.2
2022-10-23T01:05:00.326Z,75.1
2022-10-23T01:06:00.341Z,75.2
2022-10-23T01:07:00.315Z,75.2
2022-10-23T01:08:00.298Z,75.3
2022-10-23T01:09:00.395Z,75.3
2022-10-23T01:10:00.276Z,75.2
2022-10-23T01:11:00.385Z,75.6
2022-10-23T01:12:00.322Z,74.8
2022-10-23T01:13:00.364Z,74.2
2022-10-23T01:14:00.443Z,74.9
2022-10-23T01:15:00.563Z,74.7
2022-10-23T01:16:00.367Z,74.3
2022-10-23T01:17:00.420Z,74.1
2022-10-23T01:18:00.306Z,74.6
2022-10-23T01:19:00.355Z,75.0
2022-10-23T01:20:00.293Z,75.3
2022-10-23T01:21:00.590Z,75.2
2022-10-23T01:22:00.297Z,75.0
2022-10-23T01:23:00.444Z,74.9
2022-10-23T01:24:00.322Z,74.8
2022-10-23T01:25:00.283Z,74.8
2022-10-23T01:26:00.287Z,74.8
2022-10-23T01:27:00.426Z,74.2
2022-10-23T01:28:00.299Z,74.3
2022-10-23T01:29:00.308Z,74.2
2022-10-23T01:30:00.293Z,74.5
2022-10-23T01:31:00.282Z,74.0
2022-10-23T01:32:00.311Z,74.2
2022-10-23T01:33:00.444Z,74.0
2022-10-23T01:34:00.282Z,74.2
2022-10-23T01:35:00.293Z,74.5
2022-10-23T01:36:00.298Z,74.9
2022-10-23T01:37:00.295Z,75.0
2022-10-23T01:38:00.541Z,74.8
2022-10-23T01:39:00.504Z,74.4
2022-10-23T01:40:00.298Z,74.1
2022-10-23T01:41:00.302Z,74.2
2022-10-23T01:42:00.299Z,74.3
2022-10-23T01:43:00.308Z,74.7
2022-10-23T01:44:00.281Z,74.1
2022-10-23T01:45:00.431Z,73.7
2022-10-23T01:46:00.311Z,74.5
2022-10-23T01:47:00.309Z,73.8
2022-10-23T01:48:00.305Z,73.5
2022-10-23T01:49:00.335Z,73.5
2022-10-23T01:50:00.322Z,73.3
2022-10-23T01:51:00.440Z,73.2
2022-10-23T01:52:00.312Z,73.2
2022-10-23T01:53:00.354Z,73.0
2022-10-23T01:54:00.455Z,72.8
2022-10-23T01:55:00.283Z,72.5
2022-10-23T01:56:00.345Z,72.5
2022-10-23T01:57:00.530Z,72.6
2022-10-23T01:58:00.372Z,72.8
2022-10-23T01:59:00.350Z,73.2
2022-10-23T02:00:00.368Z,73.0
2022-10-23T02:01:00.328Z,72.8
2022-10-23T02:02:00.348Z,73.2
2022-10-23T02:03:00.439Z,73.6
2022-10-23T02:04:00.355Z,73.7
2022-10-23T02:05:00.288Z,73.0
2022-10-23T02:06:00.296Z,72.9
2022-10-23T02:07:00.299Z,72.6
2022-10-23T02:08:00.300Z,72.5
2022-10-23T02:09:00.575Z,72.4
2022-10-23T02:10:00.392Z,72.8
2022-10-23T02:11:00.296Z,73.0
2022-10-23T02:12:00.299Z,72.5
2022-10-23T02:13:00.307Z,72.0
2022-10-23T02:14:00.316Z,72.1
2022-10-23T02:15:00.513Z,72.3
2022-10-23T02:16:00.292Z,72.3
2022-10-23T02:17:00.295Z,72.2
2022-10-23T02:18:00.295Z,72.3
2022-10-23T02:19:00.288Z,72.0
2022-10-23T02:20:00.302Z,72.0
2022-10-23T02:21:00.472Z,71.8
2022-10-23T02:22:00.295Z,71.8
2022-10-23T02:23:00.310Z,71.9
2022-10-23T02:24:00.324Z,72.2
2022-10-23T02:25:00.524Z,72.0
2022-10-23T02:26:00.281Z,71.8
2022-10-23T02:27:00.399Z,71.5
2022-10-23T02:28:00.395Z,71.4
2022-10-23T02:29:00.351Z,71.6
2022-10-23T02:30:00.294Z,71.9
2022-10-23T02:31:00.305Z,71.9
2022-10-23T02:32:00.293Z,72.2
2022-10-23T02:33:00.404Z,72.5
2022-10-23T02:34:00.282Z,72.5
2022-10-23T02:35:00.372Z,72.3
2022-10-23T02:36:00.334Z,72.1
2022-10-23T02:37:00.285Z,72.1
2022-10-23T02:38:00.409Z,72.5
2022-10-23T02:39:00.641Z,72.4
2022-10-23T02:40:00.463Z,72.1
2022-10-23T02:41:00.325Z,72.0
2022-10-23T02:42:00.365Z,72.2
2022-10-23T02:43:00.298Z,71.8
2022-10-23T02:44:00.287Z,71.4
2022-10-23T02:45:00.477Z,71.3
2022-10-23T02:46:00.284Z,71.3
2022-10-23T02:47:00.299Z,71.6
2022-10-23T02:48:00.415Z,71.5
2022-10-23T02:49:00.282Z,71.3
2022-10-23T02:50:00.297Z,71.2
2022-10-23T02:51:00.419Z,70.9
2022-10-23T02:52:00.283Z,70.5
2022-10-23T02:53:00.301Z,70.3
2022-10-23T02:54:00.300Z,70.0
2022-10-23T02:55:00.320Z,70.3
2022-10-23T02:56:00.730Z,70.1
2022-10-23T02:57:00.443Z,70.4
2022-10-23T02:58:00.304Z,70.0
2022-10-23T02:59:00.281Z,70.0
2022-10-23T03:00:00.294Z,70.4
2022-10-23T03:01:00.385Z,70.6
2022-10-23T03:02:00.359Z,69.7
2022-10-23T03:03:00.441Z,69.4
2022-10-23T03:04:00.280Z,69.5
2022-10-23T03:05:00.306Z,69.0
2022-10-23T03:06:00.311Z,68.8
2022-10-23T03:07:00.295Z,68.9
2022-10-23T03:08:00.299Z,68.7
2022-10-23T03:09:00.438Z,68.7
2022-10-23T03:10:00.335Z,68.5
2022-10-23T03:11:00.508Z,68.5
2022-10-23T03:12:00.319Z,68.4
2022-10-23T03:13:00.364Z,68.0
2022-10-23T03:14:00.378Z,67.9
2022-10-23T03:15:00.522Z,68.2
2022-10-23T03:16:00.283Z,68.1
2022-10-23T03:17:00.314Z,68.0
2022-10-23T03:18:00.299Z,67.9
2022-10-23T03:19:00.432Z,68.1
2022-10-23T03:20:00.396Z,68.4
2022-10-23T03:21:00.490Z,68.3
2022-10-23T03:22:00.385Z,68.2
2022-10-23T03:23:00.309Z,68.1
2022-10-23T03:24:00.361Z,68.2
2022-10-23T03:25:00.309Z,68.1
2022-10-23T03:26:00.367Z,68.5
2022-10-23T03:27:00.609Z,68.7
2022-10-23T03:28:00.311Z,68.4
2022-10-23T03:29:00.277Z,68.5
2022-10-23T03:30:00.302Z,68.2
2022-10-23T03:31:00.285Z,68.1
2022-10-23T03:32:00.289Z,67.9
2022-10-23T03:33:00.396Z,68.0
2022-10-23T03:34:00.540Z,67.8
2022-10-23T03:35:00.305Z,68.1
2022-10-23T03:36:00.363Z,68.0
2022-10-23T03:37:00.347Z,67.3
2022-10-23T03:38:00.304Z,67.4
2022-10-23T03:39:00.404Z,67.4
2022-10-23T03:40:00.296Z,67.6
2022-10-23T03:41:00.477Z,67.9
2022-10-23T03:42:00.296Z,68.2
2022-10-23T03:43:00.287Z,68.4
2022-10-23T03:44:00.377Z,68.3
2022-10-23T03:45:00.505Z,68.6
2022-10-23T03:46:00.282Z,68.1
2022-10-23T03:47:00.283Z,67.8
2022-10-23T03:48:00.283Z,67.6
2022-10-23T03:49:00.300Z,67.6
2022-10-23T03:50:00.305Z,67.6
2022-10-23T03:51:00.550Z,67.5
2022-10-23T03:52:00.335Z,67.6
2022-10-23T03:53:00.281Z,67.5
2022-10-23T03:54:00.306Z,67.0
2022-10-23T03:55:00.358Z,68.0
2022-10-23T03:56:00.459Z,68.1
2022-10-23T03:57:00.550Z,67.4
2022-10-23T03:58:00.300Z,67.0
2022-10-23T03:59:00.364Z,66.8
2022-10-23T04:00:00.363Z,66.6
2022-10-23T04:01:00.400Z,66.8
2022-10-23T04:02:00.398Z,66.7
2022-10-23T04:03:00.483Z,67.0
2022-10-23T04:04:00.353Z,66.3
2022-10-23T04:05:00.296Z,66.1
2022-10-23T04:06:00.347Z,67.1
2022-10-23T04:07:00.374Z,66.2
2022-10-23T04:08:00.281Z,66.0
2022-10-23T04:09:00.486Z,65.7
2022-10-23T04:10:00.296Z,65.7
2022-10-23T04:11:00.296Z,65.9
2022-10-23T04:12:00.451Z,66.1
2022-10-23T04:13:00.301Z,66.2
2022-10-23T04:14:00.296Z,66.0
2022-10-23T04:15:00.451Z,66.0
2022-10-23T04:16:00.282Z,65.8
2022-10-23T04:17:00.293Z,66.1
2022-10-23T04:18:00.298Z,65.1
2022-10-23T04:19:00.316Z,65.3
2022-10-23T04:20:00.303Z,65.5
2022-10-23T04:21:00.467Z,65.9
2022-10-23T04:22:00.312Z,66.2
2022-10-23T04:23:00.303Z,66.5
2022-10-23T04:24:00.303Z,67.1
2022-10-23T04:25:00.327Z,67.0
2022-10-23T04:26:00.314Z,67.3
2022-10-23T04:27:00.488Z,67.7
2022-10-23T04:28:00.298Z,68.0
2022-10-23T04:29:00.305Z,67.9
2022-10-23T04:30:00.296Z,68.0
2022-10-23T04:31:00.313Z,67.9
2022-10-23T04:32:00.310Z,67.9
2022-10-23T04:33:00.471Z,68.0
2022-10-23T04:34:00.461Z,68.1
2022-10-23T04:35:00.330Z,68.1
2022-10-23T04:36:00.288Z,68.0
2022-10-23T04:37:00.319Z,67.6
2022-10-23T04:38:00.365Z,67.1
2022-10-23T04:39:00.574Z,67.0
2022-10-23T04:40:00.347Z,67.4
2022-10-23T04:41:00.376Z,67.5
2022-10-23T04:42:00.425Z,68.4
2022-10-23T04:43:00.311Z,68.7
2022-10-23T04:44:00.303Z,69.4
2022-10-23T04:45:00.433Z,68.3
2022-10-23T04:46:00.309Z,67.1
2022-10-23T04:47:00.299Z,64.4
2022-10-23T04:48:00.315Z,62.9
2022-10-23T04:49:00.336Z,63.2
2022-10-23T04:50:00.316Z,63.5
2022-10-23T04:51:00.457Z,64.1
2022-10-23T04:52:00.295Z,64.4
2022-10-23T04:53:00.321Z,64.8
2022-10-23T04:54:00.324Z,64.5
2022-10-23T04:55:00.301Z,64.5
2022-10-23T04:56:00.303Z,65.1
2022-10-23T04:57:00.661Z,65.2
2022-10-23T04:58:00.390Z,65.1
2022-10-23T04:59:00.352Z,65.3
2022-10-23T05:00:00.326Z,65.4
2022-10-23T05:01:00.430Z,65.2
2022-10-23T05:02:00.331Z,65.2
2022-10-23T05:03:00.446Z,65.6
2022-10-23T05:04:00.324Z,65.8
2022-10-23T05:05:00.303Z,65.4
2022-10-23T05:06:00.302Z,64.9
2022-10-23T05:07:00.313Z,63.9
2022-10-23T05:08:00.288Z,63.7
2022-10-23T05:09:00.583Z,64.1
2022-10-23T05:10:00.333Z,64.5
2022-10-23T05:11:00.297Z,64.1
2022-10-23T05:12:00.372Z,63.5
2022-10-23T05:13:00.434Z,63.5
2022-10-23T05:14:00.371Z,63.1
2022-10-23T05:15:00.446Z,62.3
2022-10-23T05:16:00.281Z,62.8
2022-10-23T05:17:00.346Z,63.5
2022-10-23T05:18:00.354Z,63.1
2022-10-23T05:19:00.578Z,63.4
2022-10-23T05:20:00.298Z,63.5
2022-10-23T05:21:00.559Z,63.7
2022-10-23T05:22:00.298Z,63.4
2022-10-23T05:23:00.304Z,62.9
2022-10-23T05:25:00.292Z,62.3
2022-10-23T05:26:00.298Z,61.5
2022-10-23T05:27:00.434Z,61.5
2022-10-23T05:28:00.410Z,61.1
2022-10-23T05:29:00.311Z,60.6
2022-10-23T05:30:00.318Z,60.7
2022-10-23T05:31:00.315Z,59.7
2022-10-23T05:32:00.308Z,59.3
2022-10-23T05:33:00.527Z,59.0
2022-10-23T05:34:00.330Z,58.7
2022-10-23T05:35:00.298Z,58.7
2022-10-23T05:36:00.313Z,58.5
2022-10-23T05:37:00.309Z,58.0
2022-10-23T05:38:00.383Z,58.1
2022-10-23T05:39:00.480Z,57.3
2022-10-23T05:40:00.306Z,56.2
2022-10-23T05:41:00.314Z,56.3
2022-10-23T05:42:00.303Z,56.0
2022-10-23T05:43:00.505Z,55.5
2022-10-23T05:44:00.344Z,54.5
2022-10-23T05:45:00.413Z,55.2
2022-10-23T05:46:00.401Z,55.2
2022-10-23T05:47:00.364Z,55.3
2022-10-23T05:48:10.845Z,55.2
2022-10-23T05:49:00.366Z,55.3
2022-10-23T05:50:00.407Z,55.1
2022-10-23T05:51:00.500Z,55.1
2022-10-23T05:52:00.438Z,54.8
2022-10-23T05:53:00.481Z,54.7
2022-10-23T05:54:00.429Z,54.6
2022-10-23T05:55:00.420Z,54.5
2022-10-23T05:56:00.299Z,54.6
2022-10-23T05:57:00.536Z,54.6
2022-10-23T05:58:00.619Z,54.6
2022-10-23T05:59:00.459Z,54.5
2022-10-23T06:00:00.366Z,54.2
2022-10-23T06:01:00.380Z,54.1
2022-10-23T06:02:00.638Z,54.0
2022-10-23T06:03:00.524Z,53.8
2022-10-23T06:04:00.376Z,54.1
2022-10-23T06:05:00.315Z,54.2
2022-10-23T06:06:00.278Z,54.2
2022-10-23T06:07:00.319Z,54.2
2022-10-23T06:08:00.321Z,54.1
2022-10-23T06:09:00.477Z,53.5
2022-10-23T06:10:00.327Z,53.7
2022-10-23T06:11:00.386Z,53.9
2022-10-23T06:12:00.324Z,53.9
2022-10-23T06:13:00.473Z,53.7
2022-10-23T06:14:00.865Z,53.2
2022-10-23T06:15:00.550Z,53.2
2022-10-23T06:16:00.310Z,53.2
2022-10-23T06:17:00.310Z,53.1
2022-10-23T06:18:00.299Z,53.1
2022-10-23T06:19:00.867Z,52.4
2022-10-23T06:20:00.359Z,52.3
2022-10-23T06:21:00.597Z,51.8
2022-10-23T06:22:00.315Z,51.0
2022-10-23T06:23:00.388Z,50.7
2022-10-23T06:24:00.367Z,49.7
2022-10-23T06:25:00.351Z,50.1
2022-10-23T06:26:00.411Z,50.4
2022-10-23T06:27:00.499Z,49.5
2022-10-23T06:28:00.343Z,49.2
2022-10-23T06:29:00.463Z,48.5
2022-10-23T06:30:00.465Z,48.3
2022-10-23T06:31:00.348Z,48.2
2022-10-23T06:32:00.302Z,48.3
2022-10-23T06:33:04.652Z,49.0
2022-10-23T06:34:00.398Z,48.0
2022-10-23T06:35:00.287Z,48.6
2022-10-23T06:36:00.482Z,47.9
2022-10-23T06:37:00.323Z,48.4
2022-10-23T06:38:00.395Z,48.2
2022-10-23T06:40:00.371Z,47.3
2022-10-23T06:41:00.471Z,46.2
2022-10-23T06:42:00.433Z,45.9
2022-10-23T06:43:00.379Z,45.4
2022-10-23T06:44:00.309Z,45.3
2022-10-23T06:45:04.758Z,44.6
2022-10-23T06:46:00.468Z,44.4
2022-10-23T06:47:00.378Z,44.7
2022-10-23T06:48:00.342Z,44.4
2022-10-23T06:49:00.341Z,43.9
2022-10-23T06:50:00.310Z,43.3
2022-10-23T06:51:00.649Z,41.6
2022-10-23T06:52:00.323Z,42.7
2022-10-23T06:53:00.295Z,42.1
2022-10-23T06:54:00.300Z,39.7
2022-10-23T06:55:00.326Z,38.0
2022-10-23T06:56:00.361Z,32.9
2022-10-23T06:57:00.410Z,28.5
2022-10-23T06:58:00.286Z,28.9
2022-10-23T06:59:00.356Z,25.2
2022-10-23T07:00:00.377Z,20.6
2022-10-23T07:01:00.583Z,20.8
2022-10-23T07:02:00.360Z,20.7
2022-10-23T07:03:00.425Z,20.9
2022-10-23T07:04:00.363Z,20.0
2022-10-23T07:05:00.413Z,17.5
2022-10-23T07:06:00.322Z,16.9
2022-10-23T07:07:00.375Z,15.4
2022-10-23T07:08:00.305Z,15.5
2022-10-23T07:09:00.660Z,14.3
2022-10-23T07:10:00.443Z,13.7
2022-10-23T07:11:00.283Z,13.8
2022-10-23T07:12:00.278Z,12.6
2022-10-23T07:13:00.301Z,12.3
2022-10-23T07:14:00.305Z,12.8
2022-10-23T07:15:00.591Z,13.6
2022-10-23T07:16:00.435Z,12.9
2022-10-23T07:17:00.407Z,13.7
2022-10-23T07:18:00.310Z,13.7
2022-10-23T07:19:00.333Z,13.2
2022-10-23T07:20:00.310Z,13.1
2022-10-23T07:21:00.446Z,12.5
2022-10-23T07:22:00.278Z,12.3
2022-10-23T07:23:00.299Z,12.0
2022-10-23T07:24:00.290Z,11.9
2022-10-23T07:25:00.314Z,11.3
2022-10-23T07:26:00.300Z,11.7
2022-10-23T07:27:00.483Z,10.6
2022-10-23T07:28:00.332Z,10.3
2022-10-23T07:29:00.296Z,11.4
2022-10-23T07:30:00.309Z,11.3
2022-10-23T07:31:00.312Z,11.3
2022-10-23T07:32:00.476Z,11.2
2022-10-23T07:33:00.484Z,11.2
2022-10-23T07:34:00.342Z,11.4
2022-10-23T07:35:00.461Z,10.0
2022-10-23T07:36:00.309Z,9.6
2022-10-23T07:37:00.298Z,9.2
2022-10-23T07:38:00.336Z,10.2
2022-10-23T07:39:00.549Z,10.5
2022-10-23T07:40:00.292Z,10.3
2022-10-23T07:41:00.293Z,10.5
2022-10-23T07:42:00.295Z,10.7
2022-10-23T07:43:00.307Z,10.6
2022-10-23T07:44:00.321Z,10.4
2022-10-23T07:45:00.428Z,9.8
2022-10-23T07:46:00.421Z,9.9
2022-10-23T07:47:00.463Z,9.6
2022-10-23T07:48:00.306Z,9.2
2022-10-23T07:49:00.296Z,9.6
2022-10-23T07:50:00.330Z,9.9
2022-10-23T07:51:00.466Z,9.4
2022-10-23T07:52:00.387Z,9.5
2022-10-23T07:53:00.305Z,9.9
2022-10-23T07:54:00.316Z,9.3
2022-10-23T07:55:00.296Z,9.6
2022-10-23T07:56:00.307Z,10.3
2022-10-23T07:57:00.440Z,9.8
2022-10-23T07:58:00.298Z,10.0
2022-10-23T07:59:00.300Z,9.6
2022-10-23T08:00:00.295Z,9.4
2022-10-23T08:01:00.355Z,9.4
2022-10-23T08:02:00.562Z,9.8
2022-10-23T08:03:00.495Z,9.3
2022-10-23T08:04:00.346Z,9.4
2022-10-23T08:05:00.305Z,9.9
2022-10-23T08:06:00.282Z,9.5
2022-10-23T08:07:00.278Z,9.9
2022-10-23T08:08:00.308Z,9.9
2022-10-23T08:09:03.755Z,9.7
2022-10-23T08:10:00.301Z,9.3
2022-10-23T08:11:00.289Z,9.1
2022-10-23T08:12:00.309Z,9.2
2022-10-23T08:13:00.305Z,8.9
2022-10-23T08:14:00.313Z,8.4
2022-10-23T08:15:00.636Z,8.6
2022-10-23T08:16:00.276Z,8.7
2022-10-23T08:17:03.398Z,8.5
2022-10-23T08:18:00.345Z,7.9
2022-10-23T08:19:00.317Z,7.9
2022-10-23T08:20:00.282Z,8.4
2022-10-23T08:21:00.430Z,8.1
2022-10-23T08:22:00.297Z,8.0
2022-10-23T08:23:00.290Z,8.2
2022-10-23T08:24:00.300Z,8.0
2022-10-23T08:25:00.308Z,7.9
2022-10-23T08:26:00.292Z,7.1
2022-10-23T08:27:00.579Z,6.7
2022-10-23T08:28:03.106Z,7.8
2022-10-23T08:29:00.318Z,8.3
2022-10-23T08:30:00.284Z,8.5
2022-10-23T08:31:00.361Z,8.6
2022-10-23T08:32:00.308Z,8.3
2022-10-23T08:33:00.557Z,8.5
2022-10-23T08:34:00.291Z,8.8
2022-10-23T08:35:00.285Z,8.6
2022-10-23T08:36:00.293Z,8.6
2022-10-23T08:37:00.315Z,8.2
2022-10-23T08:38:00.296Z,7.9
2022-10-23T08:39:00.602Z,7.9
2022-10-23T08:40:00.280Z,7.7
2022-10-23T08:41:00.282Z,7.5
2022-10-23T08:42:00.375Z,7.2
2022-10-23T08:43:00.281Z,7.4
2022-10-23T08:44:00.296Z,7.6
2022-10-23T08:45:00.425Z,7.6
2022-10-23T08:46:00.294Z,7.5
2022-10-23T08:47:00.303Z,7.4
2022-10-23T08:48:00.390Z,7.3
2022-10-23T08:49:00.411Z,7.8
2022-10-23T08:50:00.296Z,7.7
2022-10-23T08:51:00.436Z,7.9
2022-10-23T08:52:00.324Z,7.6
2022-10-23T08:53:00.360Z,7.8
2022-10-23T08:54:00.338Z,7.8
2022-10-23T08:55:00.304Z,6.7
2022-10-23T08:56:00.343Z,6.9
2022-10-23T08:57:00.576Z,7.2
2022-10-23T08:58:00.498Z,7.7
2022-10-23T08:59:00.313Z,7.1
2022-10-23T09:00:00.319Z,7.0
2022-10-23T09:01:00.485Z,6.3
2022-10-23T09:02:00.487Z,7.2
2022-10-23T09:03:00.688Z,6.9
2022-10-23T09:04:00.518Z,7.1
2022-10-23T09:05:00.447Z,7.3
2022-10-23T09:06:00.322Z,7.0
2022-10-23T09:07:00.358Z,6.7
2022-10-23T09:08:00.276Z,6.3
2022-10-23T09:09:00.413Z,5.3
2022-10-23T09:10:00.281Z,6.0
2022-10-23T09:11:00.328Z,6.6
2022-10-23T09:12:00.282Z,6.8
2022-10-23T09:13:00.301Z,6.1
2022-10-23T09:14:00.301Z,6.9
2022-10-23T09:15:00.631Z,6.9
2022-10-23T09:16:00.331Z,6.9
2022-10-23T09:17:00.305Z,6.3
2022-10-23T09:18:00.313Z,6.7
2022-10-23T09:19:00.317Z,7.0
2022-10-23T09:20:00.439Z,7.1
2022-10-23T09:21:00.386Z,6.0
2022-10-23T09:22:00.292Z,6.3
2022-10-23T09:23:00.303Z,7.0
2022-10-23T09:24:00.299Z,7.5
2022-10-23T09:25:00.289Z,7.6
2022-10-23T09:26:00.279Z,7.7
2022-10-23T09:27:00.515Z,8.0
2022-10-23T09:28:01.498Z,7.8
2022-10-23T09:29:00.350Z,7.4
2022-10-23T09:30:00.380Z,7.7
2022-10-23T09:31:00.404Z,7.4
2022-10-23T09:32:00.375Z,7.6
2022-10-23T09:33:00.435Z,7.9
2022-10-23T09:34:00.324Z,8.0
2022-10-23T09:35:00.544Z,8.3
2022-10-23T09:36:00.376Z,7.7
2022-10-23T09:37:00.432Z,7.9
2022-10-23T09:38:00.378Z,8.4
2022-10-23T09:39:00.525Z,8.6
2022-10-23T09:40:00.320Z,11.0
2022-10-23T09:41:00.311Z,9.9
2022-10-23T09:42:00.280Z,9.5
2022-10-23T09:43:00.290Z,9.7
2022-10-23T09:44:00.326Z,9.7
2022-10-23T09:45:00.478Z,9.0
2022-10-23T09:46:00.305Z,8.8
2022-10-23T09:47:00.295Z,9.3
2022-10-23T09:48:00.335Z,10.2
2022-10-23T09:49:02.252Z,9.9
2022-10-23T09:50:00.452Z,9.6
2022-10-23T09:51:00.433Z,9.6
2022-10-23T09:52:00.296Z,9.6
2022-10-23T09:53:00.298Z,9.2
2022-10-23T09:54:00.294Z,8.9
2022-10-23T09:55:00.297Z,8.8
2022-10-23T09:56:00.305Z,9.9
2022-10-23T09:57:00.451Z,10.2
2022-10-23T09:58:00.295Z,10.1
2022-10-23T09:59:00.313Z,10.4
2022-10-23T10:00:00.294Z,10.3
2022-10-23T10:01:00.392Z,10.0
2022-10-23T10:02:00.441Z,9.9
2022-10-23T10:03:00.532Z,9.8
2022-10-23T10:04:00.377Z,9.7
2022-10-23T10:05:00.487Z,9.6
2022-10-23T10:06:00.477Z,9.5
2022-10-23T10:07:00.467Z,9.6
2022-10-23T10:08:00.319Z,9.7
2022-10-23T10:09:00.607Z,9.8
2022-10-23T10:10:01.077Z,10.0
2022-10-23T10:11:00.598Z,10.2
2022-10-23T10:12:00.693Z,10.2
2022-10-23T10:13:00.309Z,10.0
2022-10-23T10:14:00.463Z,10.1
2022-10-23T10:15:00.810Z,10.3
2022-10-23T10:16:00.525Z,10.2
2022-10-23T10:17:00.306Z,10.4
2022-10-23T10:18:00.383Z,10.0
2022-10-23T10:19:00.396Z,9.8
2022-10-23T10:20:03.857Z,9.8
2022-10-23T10:21:00.774Z,10.3
2022-10-23T10:22:00.356Z,9.9
2022-10-23T10:23:00.318Z,9.4
2022-10-23T10:24:00.294Z,10.0
2022-10-23T10:25:01.045Z,10.8
2022-10-23T10:26:00.447Z,10.9
2022-10-23T10:27:00.546Z,11.2
2022-10-23T10:28:00.307Z,11.2
2022-10-23T10:29:00.516Z,11.0
2022-10-23T10:30:00.417Z,10.9
2022-10-23T10:31:00.297Z,11.5
2022-10-23T10:32:00.426Z,11.5
2022-10-23T10:33:00.628Z,11.0
2022-10-23T10:34:00.290Z,11.9
2022-10-23T10:35:00.301Z,13.0
2022-10-23T10:36:00.583Z,13.1
2022-10-23T10:37:00.469Z,13.3
2022-10-23T10:38:00.332Z,12.9
2022-10-23T10:39:00.468Z,13.1
2022-10-23T10:40:00.363Z,13.7
2022-10-23T10:41:00.307Z,13.9
2022-10-23T10:42:00.350Z,13.7
2022-10-23T10:43:00.365Z,13.3
2022-10-23T10:44:00.302Z,12.9
2022-10-23T10:45:00.435Z,12.4
2022-10-23T10:46:00.476Z,12.6
2022-10-23T10:47:00.459Z,12.8
2022-10-23T10:48:00.291Z,13.1
2022-10-23T10:49:00.280Z,13.6
2022-10-23T10:50:00.309Z,14.2
2022-10-23T10:51:00.483Z,14.7
2022-10-23T10:52:00.462Z,15.0
2022-10-23T10:53:00.528Z,15.5
2022-10-23T10:54:00.280Z,15.4
2022-10-23T10:55:00.320Z,15.6
2022-10-23T10:56:00.384Z,15.6
2022-10-23T10:57:00.419Z,15.4
2022-10-23T10:58:00.288Z,15.1
2022-10-23T10:59:00.424Z,14.3
2022-10-23T11:00:00.280Z,13.7
2022-10-23T11:01:00.426Z,13.3
2022-10-23T11:02:00.500Z,13.0
2022-10-23T11:03:00.457Z,12.4
2022-10-23T11:04:00.285Z,12.8
2022-10-23T11:05:00.307Z,13.5
2022-10-23T11:07:00.304Z,12.4
2022-10-23T11:08:00.406Z,12.5
2022-10-23T11:09:19.239Z,12.9
2022-10-23T11:10:00.301Z,13.0
2022-10-23T11:11:00.321Z,13.2
2022-10-23T11:12:00.346Z,14.0
2022-10-23T11:13:00.300Z,14.1
2022-10-23T11:14:00.392Z,14.5
2022-10-23T11:15:00.463Z,14.4
2022-10-23T11:16:00.294Z,14.3
2022-10-23T11:17:00.306Z,14.3
2022-10-23T11:18:00.304Z,14.6
2022-10-23T11:19:00.305Z,14.8
2022-10-23T11:20:00.350Z,15.2
2022-10-23T11:21:00.484Z,15.0
2022-10-23T11:22:00.306Z,15.2
2022-10-23T11:23:00.476Z,15.8
2022-10-23T11:24:00.392Z,15.9
2022-10-23T11:25:00.298Z,16.2
2022-10-23T11:26:00.404Z,16.9
2022-10-23T11:27:00.706Z,17.5
2022-10-23T11:28:03.558Z,17.5
2022-10-23T11:29:00.295Z,16.9
2022-10-23T11:30:00.315Z,16.3
2022-10-23T11:31:00.317Z,16.2
2022-10-23T11:32:00.373Z,17.0
2022-10-23T11:33:00.478Z,17.0
2022-10-23T11:34:00.355Z,17.8
2022-10-23T11:35:00.396Z,18.4
2022-10-23T11:36:00.324Z,19.5
2022-10-23T11:37:00.311Z,20.0
2022-10-23T11:38:00.566Z,20.1
2022-10-23T11:39:00.474Z,21.2
2022-10-23T11:40:00.535Z,22.4
2022-10-23T11:41:00.383Z,23.6
2022-10-23T11:42:00.339Z,25.6
2022-10-23T11:43:00.556Z,24.1
2022-10-23T11:44:00.676Z,23.8
2022-10-23T11:45:00.669Z,23.0
2022-10-23T11:46:00.370Z,23.6
2022-10-23T11:47:00.747Z,22.8
2022-10-23T11:48:00.623Z,23.2
2022-10-23T11:49:00.454Z,24.3
2022-10-23T11:50:00.600Z,23.4
2022-10-23T11:51:04.239Z,24.2
2022-10-23T11:52:00.555Z,24.6
2022-10-23T11:53:13.537Z,24.4
2022-10-23T11:54:00.557Z,25.0
2022-10-23T11:55:00.716Z,25.3
2022-10-23T11:56:00.741Z,25.2
2022-10-23T11:57:00.625Z,25.4
2022-10-23T11:58:00.619Z,25.6
2022-10-23T11:59:00.380Z,26.1
2022-10-23T12:00:00.628Z,26.7
2022-10-23T12:01:00.322Z,26.7
2022-10-23T12:02:00.692Z,27.8
2022-10-23T12:03:00.994Z,28.7
2022-10-23T12:04:00.559Z,29.8
2022-10-23T12:05:00.620Z,30.2
2022-10-23T12:06:00.644Z,30.1
2022-10-23T12:07:00.704Z,30.7
2022-10-23T12:08:00.565Z,31.3
2022-10-23T12:09:00.954Z,31.4
2022-10-23T12:10:00.382Z,31.9
2022-10-23T12:11:00.800Z,31.8
2022-10-23T12:12:00.589Z,31.6
2022-10-23T12:13:00.479Z,32.0
2022-10-23T12:14:00.469Z,32.2
2022-10-23T12:15:00.504Z,32.7
2022-10-23T12:16:01.137Z,32.8
2022-10-23T12:17:00.404Z,33.7
2022-10-23T12:18:00.299Z,34.0
2022-10-23T12:19:00.455Z,34.2
2022-10-23T12:20:00.551Z,34.5
2022-10-23T12:21:00.521Z,34.7
2022-10-23T12:22:00.452Z,35.3
2022-10-23T12:23:00.317Z,35.3
2022-10-23T12:24:00.299Z,35.6
2022-10-23T12:25:00.470Z,35.7
2022-10-23T12:26:00.373Z,35.7
2022-10-23T12:27:00.575Z,35.6
2022-10-23T12:28:00.287Z,35.5
2022-10-23T12:29:00.310Z,35.9
2022-10-23T12:30:00.308Z,36.1
2022-10-23T12:31:00.347Z,36.3
2022-10-23T12:32:00.366Z,36.9
2022-10-23T12:33:00.496Z,36.5
2022-10-23T12:34:00.274Z,36.4
2022-10-23T12:35:00.277Z,36.6
2022-10-23T12:36:00.445Z,36.8
2022-10-23T12:37:00.588Z,36.6
2022-10-23T12:38:00.307Z,36.3
2022-10-23T12:39:00.448Z,36.9
2022-10-23T12:40:00.437Z,37.5
2022-10-23T12:41:00.487Z,37.1
2022-10-23T12:42:00.385Z,37.2
2022-10-23T12:43:00.352Z,37.6
2022-10-23T12:44:00.382Z,37.5
2022-10-23T12:45:00.491Z,37.5
2022-10-23T12:46:00.438Z,37.5
2022-10-23T12:47:00.394Z,37.9
2022-10-23T12:48:00.526Z,38.5
2022-10-23T12:49:00.292Z,38.4
2022-10-23T12:50:00.323Z,39.8
2022-10-23T12:51:00.719Z,40.9
2022-10-23T12:52:00.296Z,38.5
2022-10-23T12:53:00.366Z,38.7
2022-10-23T12:54:00.421Z,39.1
2022-10-23T12:55:00.318Z,39.0
2022-10-23T12:57:00.496Z,39.4
2022-10-23T12:58:00.289Z,39.5
2022-10-23T12:59:00.530Z,39.5
2022-10-23T13:00:00.379Z,39.7
2022-10-23T13:01:00.576Z,39.5
2022-10-23T13:02:00.494Z,39.6
2022-10-23T13:03:00.442Z,40.1
2022-10-23T13:04:00.343Z,40.1
2022-10-23T13:05:00.360Z,40.1
2022-10-23T13:06:00.298Z,39.5
2022-10-23T13:07:00.517Z,39.5
2022-10-23T13:08:00.356Z,39.7
2022-10-23T13:09:00.716Z,39.7
2022-10-23T13:10:00.379Z,40.1
2022-10-23T13:11:00.460Z,39.8
2022-10-23T13:12:00.520Z,40.1
2022-10-23T13:13:00.311Z,40.3
2022-10-23T13:14:00.306Z,40.6
2022-10-23T13:15:00.480Z,40.8
2022-10-23T13:16:00.331Z,40.8
2022-10-23T13:17:00.613Z,40.8
2022-10-23T13:18:00.294Z,40.7
2022-10-23T13:19:00.310Z,40.7
2022-10-23T13:20:00.293Z,40.5
2022-10-23T13:22:00.298Z,40.9
2022-10-23T13:23:00.957Z,40.8
2022-10-23T13:24:00.274Z,40.7
2022-10-23T13:25:00.299Z,41.4
2022-10-23T13:26:00.301Z,41.5
2022-10-23T13:27:00.594Z,41.9
2022-10-23T13:28:00.375Z,41.6